Time;durP1;ratioP1;P1;durP2;ratioP2;P2;SDS_P1;SDS_P2;PMS_P1;PMS_P2;Temp;Humidity;BMP_temperature;BMP_pressure;BME280_temperature;BME280_humidity;BME280_pressure;Samples;Min_cycle;Max_cycle;Signal;HPM_P1;HPM_P2
2021/04/25 00:00:14;;;;;;;24.70;8.63;;;6.70;99.90;;;;;;5031667;28;20048;-82
2021/04/25 00:02:42;;;;;;;27.85;8.82;;;;;;;;;;5012845;28;20053;-79
2021/04/25 00:05:12;;;;;;;19.60;8.95;;;6.60;99.90;;;;;;5013887;28;20471;-81
2021/04/25 00:07:40;;;;;;;19.05;6.90;;;;;;;;;;5005280;28;20049;-81
2021/04/25 00:10:10;;;;;;;17.45;8.43;;;6.50;99.90;;;;;;5031312;28;20049;-80
2021/04/25 00:12:41;;;;;;;20.92;6.68;;;7.30;99.90;;;;;;5034559;28;20064;-83
2021/04/25 00:15:12;;;;;;;24.55;7.10;;;6.50;99.90;;;;;;5035525;28;20058;-83
2021/04/25 00:17:39;;;;;;;27.50;6.10;;;6.50;99.90;;;;;;5034378;28;20057;-82
2021/04/25 00:20:09;;;;;;;20.63;7.93;;;6.40;99.90;;;;;;5034829;28;20050;-82
2021/04/25 00:22:37;;;;;;;27.63;9.82;;;;;;;;;;4998900;28;20057;-83
2021/04/25 00:25:06;;;;;;;19.10;6.85;;;6.40;99.90;;;;;;5027874;28;20065;-85
2021/04/25 00:27:34;;;;;;;17.75;8.25;;;;;;;;;;5014592;28;20049;-83
2021/04/25 00:30:05;;;;;;;22.33;8.68;;;6.40;99.90;;;;;;5015846;28;20054;-82
2021/04/25 00:32:33;;;;;;;22.10;7.38;;;6.30;99.90;;;;;;5022265;28;20050;-86
2021/04/25 00:35:01;;;;;;;18.88;8.25;;;;;;;;;;5015250;28;20042;-81
2021/04/25 00:37:29;;;;;;;17.58;7.68;;;;;;;;;;5024368;28;20053;-81
2021/04/25 00:39:58;;;;;;;24.40;7.15;;;6.30;99.90;;;;;;5003778;28;20054;-82
2021/04/25 00:42:26;;;;;;;17.63;6.85;;;6.00;99.90;;;;;;5022083;28;20058;-81
2021/04/25 00:45:02;;;;;;;20.10;8.30;;;6.20;99.90;;;;;;5016611;28;20050;-84
2021/04/25 00:47:30;;;;;;;21.88;6.90;;;6.10;99.90;;;;;;5001406;28;20049;-81
2021/04/25 00:49:58;;;;;;;15.45;5.95;;;;;;;;;;5005773;28;20401;-83
2021/04/25 00:52:26;;;;;;;19.75;6.65;;;;;;;;;;5019139;28;20061;-83
2021/04/25 00:54:54;;;;;;;21.65;7.28;;;6.20;99.90;;;;;;5002471;28;20054;-79
2021/04/25 00:57:22;;;;;;;18.65;5.97;;;;;;;;;;5021557;28;20060;-81
2021/04/25 00:59:49;;;;;;;25.40;8.15;;;;;;;;;;5020218;28;20050;-79
2021/04/25 01:02:17;;;;;;;22.55;7.72;;;6.10;99.90;;;;;;5007727;28;20050;-79
2021/04/25 01:04:44;;;;;;;23.17;8.93;;;;;;;;;;5018623;28;20064;-82
2021/04/25 01:07:11;;;;;;;25.75;7.25;;;6.10;99.90;;;;;;5019378;28;20045;-80
2021/04/25 01:09:41;;;;;;;22.38;6.97;;;;;;;;;;5020699;28;20049;-82
2021/04/25 01:12:09;;;;;;;19.48;6.65;;;5.90;99.90;;;;;;5011580;28;20077;-79
2021/04/25 01:14:36;;;;;;;17.70;6.93;;;6.10;99.90;;;;;;5017916;28;20054;-82
2021/04/25 01:17:04;;;;;;;23.15;10.15;;;7.40;99.90;;;;;;5027634;28;20060;-78
2021/04/25 01:19:31;;;;;;;18.67;7.30;;;;;;;;;;5028313;28;20061;-78
2021/04/25 01:22:00;;;;;;;22.13;6.78;;;5.90;99.90;;;;;;5023331;28;20048;-79
2021/04/25 01:24:27;;;;;;;23.10;9.13;;;;;;;;;;5017865;28;20089;-83
2021/04/25 01:27:05;;;;;;;26.15;6.90;;;6.00;99.90;;;;;;5010503;28;20050;-79
2021/04/25 01:29:33;;;;;;;19.27;7.55;;;5.90;99.90;;;;;;5039585;28;20071;-82
2021/04/25 01:32:04;;;;;;;28.52;9.10;;;5.70;99.90;;;;;;5039904;28;20053;-81
2021/04/25 01:34:33;;;;;;;25.65;7.68;;;5.80;99.90;;;;;;5038282;28;20133;-79
2021/04/25 01:37:06;;;;;;;21.13;7.97;;;;;;;;;;5023125;28;20049;-79
2021/04/25 01:39:40;;;;;;;28.73;7.28;;;5.80;99.90;;;;;;5008805;28;20053;-78
2021/04/25 01:42:08;;;;;;;33.70;8.90;;;;;;;;;;5018678;28;20053;-79
2021/04/25 01:44:37;;;;;;;23.17;6.97;;;;;;;;;;5023524;28;20057;-82
2021/04/25 01:47:05;;;;;;;20.23;6.63;;;;;;;;;;5040156;28;20050;-82
2021/04/25 01:49:33;;;;;;;23.27;7.30;;;5.80;99.90;;;;;;5007294;28;20734;-85
2021/04/25 01:52:01;;;;;;;16.55;6.32;;;5.70;99.90;;;;;;5015277;28;20052;-83
2021/04/25 01:54:29;;;;;;;18.83;7.45;;;5.50;99.90;;;;;;5019094;28;20050;-81
2021/04/25 01:57:06;;;;;;;17.70;6.97;;;5.70;99.90;;;;;;5015006;28;20088;-83
2021/04/25 01:59:37;;;;;;;17.77;6.55;;;5.80;99.90;;;;;;5017123;28;20515;-82
2021/04/25 02:02:04;;;;;;;18.83;7.70;;;;;;;;;;5025614;28;20076;-81
2021/04/25 02:04:36;;;;;;;20.80;6.07;;;6.00;99.90;;;;;;5038744;28;20080;-81
2021/04/25 02:07:09;;;;;;;12.60;6.10;;;6.30;99.90;;;;;;5019993;28;20049;-81
2021/04/25 02:09:37;;;;;;;16.02;7.38;;;;;;;;;;5025369;28;20057;-83
2021/04/25 02:12:05;;;;;;;23.85;6.30;;;5.30;99.90;;;;;;5023788;28;20072;-78
2021/04/25 02:14:34;;;;;;;22.23;7.45;;;;;;;;;;5012255;28;20057;-82
2021/04/25 02:17:01;;;;;;;19.60;6.72;;;;;;;;;;5037657;28;20057;-82
2021/04/25 02:19:29;;;;;;;19.40;6.70;;;;;;;;;;5008008;28;20069;-81
2021/04/25 02:21:56;;;;;;;16.70;7.78;;;;;;;;;;5009349;28;20061;-78
2021/04/25 02:24:24;;;;;;;25.13;8.82;;;;;;;;;;5024123;28;20052;-77
2021/04/25 02:26:51;;;;;;;20.92;6.45;;;5.50;99.90;;;;;;5026966;28;20069;-79
2021/04/25 02:29:19;;;;;;;20.35;8.40;;;;;;;;;;5035635;28;20061;-80
2021/04/25 02:31:46;;;;;;;18.27;8.60;;;5.50;99.90;;;;;;5034875;28;20056;-79
2021/04/25 02:34:13;;;;;;;24.73;6.28;;;5.60;99.90;;;;;;5021348;28;20057;-79
2021/04/25 02:36:42;;;;;;;23.30;7.15;;;5.80;99.90;;;;;;4990941;28;20057;-78
2021/04/25 02:39:09;;;;;;;19.27;7.97;;;;;;;;;;5026566;28;20493;-78
2021/04/25 02:41:36;;;;;;;17.48;7.72;;;5.50;99.90;;;;;;5031631;28;20053;-82
2021/04/25 02:44:04;;;;;;;19.33;7.60;;;;;;;;;;5025681;28;20068;-79
2021/04/25 02:46:32;;;;;;;25.63;9.00;;;;;;;;;;5016743;28;20626;-81
2021/04/25 02:49:03;;;;;;;23.92;8.82;;;5.40;99.90;;;;;;5018312;28;20056;-79
2021/04/25 02:51:30;;;;;;;27.08;8.77;;;;;;;;;;5015710;28;20061;-78
2021/04/25 02:54:00;;;;;;;19.98;6.90;;;;;;;;;;5007321;28;20054;-78
2021/04/25 02:56:27;;;;;;;26.80;7.85;;;;;;;;;;5025983;28;20057;-80
2021/04/25 02:58:56;;;;;;;18.10;6.28;;;;;;;;;;5028702;28;20530;-80
2021/04/25 03:01:24;;;;;;;24.98;9.52;;;;;;;;;;5002829;28;20041;-79
2021/04/25 03:03:53;;;;;;;26.38;9.55;;;;;;;;;;5025059;28;20041;-79
2021/04/25 03:06:22;;;;;;;25.88;10.10;;;5.30;99.90;;;;;;5007759;28;20065;-77
2021/04/25 03:08:50;;;;;;;23.88;9.43;;;;;;;;;;5004971;28;20041;-78
2021/04/25 03:11:19;;;;;;;30.20;9.10;;;5.30;99.90;;;;;;5029753;28;20069;-78
2021/04/25 03:13:47;;;;;;;27.40;8.82;;;5.30;99.90;;;;;;5029527;28;20053;-78
2021/04/25 03:16:15;;;;;;;37.40;8.90;;;;;;;;;;5028902;28;20064;-81
2021/04/25 03:18:42;;;;;;;21.33;9.20;;;5.10;99.90;;;;;;5011982;28;20612;-81
2021/04/25 03:21:10;;;;;;;25.23;8.43;;;4.70;99.90;;;;;;5025277;28;20057;-81
2021/04/25 03:23:40;;;;;;;26.10;10.40;;;5.20;99.90;;;;;;5032077;28;20077;-82
2021/04/25 03:26:08;;;;;;;30.88;7.57;;;7.60;99.90;;;;;;5029519;28;20374;-81
2021/04/25 03:28:35;;;;;;;24.27;9.50;;;4.70;99.90;;;;;;5013522;28;20061;-80
2021/04/25 03:31:03;;;;;;;34.80;8.93;;;5.50;99.90;;;;;;5012550;28;20068;-80
2021/04/25 03:33:31;;;;;;;21.52;9.40;;;5.20;99.90;;;;;;5012664;28;20072;-80
2021/04/25 03:35:59;;;;;;;28.40;8.55;;;;;;;;;;5029378;28;20049;-80
2021/04/25 03:38:27;;;;;;;22.77;9.23;;;5.20;99.90;;;;;;4996418;28;20057;-79
2021/04/25 03:41:03;;;;;;;29.80;9.50;;;;;;;;;;5013889;28;20076;-82
2021/04/25 03:43:31;;;;;;;31.83;10.40;;;;;;;;;;5035710;28;20057;-81
2021/04/25 03:45:59;;;;;;;29.85;10.70;;;;;;;;;;5030338;28;20046;-83
2021/04/25 03:48:30;;;;;;;30.08;12.15;;;5.40;99.90;;;;;;5030977;28;20041;-78
2021/04/25 03:51:00;;;;;;;24.98;9.50;;;5.20;99.90;;;;;;5030296;28;20060;-79
2021/04/25 03:53:27;;;;;;;22.17;8.07;;;5.10;99.90;;;;;;5011911;28;20050;-79
2021/04/25 03:55:54;;;;;;;29.67;10.20;;;5.10;99.90;;;;;;5029680;28;20064;-78
2021/04/25 03:58:22;;;;;;;22.75;10.95;;;5.10;99.90;;;;;;5028076;28;20049;-78
2021/04/25 04:00:50;;;;;;;36.20;11.15;;;5.10;99.90;;;;;;5013319;28;20246;-82
2021/04/25 04:03:22;;;;;;;23.48;10.32;;;;;;;;;;5030611;28;20053;-81
2021/04/25 04:05:49;;;;;;;25.63;8.20;;;5.10;99.90;;;;;;5030020;28;20053;-80
2021/04/25 04:08:16;;;;;;;34.92;9.45;;;;;;;;;;5029859;28;20614;-81
2021/04/25 04:10:43;;;;;;;31.67;10.18;;;5.20;99.90;;;;;;5033364;28;20056;-81
2021/04/25 04:13:11;;;;;;;28.40;11.15;;;5.10;99.90;;;;;;5035638;28;20136;-82
2021/04/25 04:15:38;;;;;;;30.63;10.35;;;5.20;99.90;;;;;;5035198;28;20045;-81
2021/04/25 04:18:05;;;;;;;32.78;9.35;;;5.70;99.90;;;;;;5034796;28;20061;-80
2021/04/25 04:20:32;;;;;;;29.90;12.55;;;5.30;99.90;;;;;;5030400;28;20050;-81
2021/04/25 04:23:00;;;;;;;24.25;10.32;;;5.20;99.90;;;;;;4995915;28;20053;-81
2021/04/25 04:25:27;;;;;;;29.00;10.13;;;5.00;99.90;;;;;;5030053;28;20061;-79
2021/04/25 04:27:58;;;;;;;29.87;11.83;;;4.60;99.90;;;;;;5012658;28;20511;-80
2021/04/25 04:30:26;;;;;;;28.90;11.73;;;6.20;99.90;;;;;;5030245;28;20049;-80
2021/04/25 04:32:54;;;;;;;24.48;9.18;;;5.20;99.90;;;;;;5028273;28;20064;-81
2021/04/25 04:35:22;;;;;;;24.08;10.68;;;;;;;;;;5028861;28;20062;-81
2021/04/25 04:37:49;;;;;;;35.55;12.90;;;5.20;99.90;;;;;;5029409;28;20045;-81
2021/04/25 04:40:16;;;;;;;37.45;11.18;;;5.40;99.90;;;;;;5029891;28;20531;-79
2021/04/25 04:42:43;;;;;;;34.55;9.68;;;5.30;99.90;;;;;;5029090;28;20448;-80
2021/04/25 04:45:13;;;;;;;24.10;10.38;;;5.60;99.90;;;;;;5029274;28;20053;-79
2021/04/25 04:47:44;;;;;;;43.20;12.88;;;5.20;99.90;;;;;;5009295;28;20054;-79
2021/04/25 04:50:13;;;;;;;29.30;12.38;;;5.50;99.90;;;;;;5026312;28;20080;-79
2021/04/25 04:52:41;;;;;;;27.63;11.38;;;5.50;99.90;;;;;;5025969;28;20369;-79
2021/04/25 04:55:10;;;;;;;35.63;12.32;;;4.60;99.90;;;;;;5008467;28;20381;-80
2021/04/25 04:57:37;;;;;;;23.52;10.30;;;;;;;;;;5026540;28;20068;-81
2021/04/25 05:00:06;;;;;;;30.80;12.40;;;5.30;99.90;;;;;;5024293;28;20050;-85
2021/04/25 05:02:34;;;;;;;27.60;13.30;;;;;;;;;;5007002;28;20065;-78
2021/04/25 05:05:01;;;;;;;38.42;12.43;;;;;;;;;;5025733;28;20489;-80
2021/04/25 05:07:29;;;;;;;24.10;10.43;;;;;;;;;;5026710;28;20041;-81
2021/04/25 05:09:56;;;;;;;29.02;10.38;;;5.40;99.90;;;;;;5020519;28;20081;-80
2021/04/25 05:12:23;;;;;;;33.15;12.57;;;5.40;99.90;;;;;;5026282;28;20053;-80
2021/04/25 05:14:52;;;;;;;29.38;10.77;;;5.50;99.90;;;;;;5021624;28;20066;-81
2021/04/25 05:17:19;;;;;;;32.30;13.07;;;5.40;99.90;;;;;;5025926;28;20420;-81
2021/04/25 05:19:47;;;;;;;29.52;10.18;;;;;;;;;;4985992;28;20089;-82
2021/04/25 05:22:14;;;;;;;28.58;12.13;;;5.50;99.90;;;;;;5007803;28;20064;-78
2021/04/25 05:24:42;;;;;;;32.75;10.75;;;;;;;;;;5026258;28;20054;-81
2021/04/25 05:27:09;;;;;;;34.95;10.77;;;;;;;;;;5016190;28;20501;-79
2021/04/25 05:29:37;;;;;;;24.60;10.68;;;;;;;;;;5009651;28;20057;-80
2021/04/25 05:32:04;;;;;;;31.83;9.63;;;5.50;99.90;;;;;;5027098;28;20081;-81
2021/04/25 05:34:32;;;;;;;28.92;10.30;;;5.50;99.90;;;;;;5029800;28;20060;-81
2021/04/25 05:36:59;;;;;;;22.55;9.90;;;;;;;;;;5012971;28;20721;-78
2021/04/25 05:39:27;;;;;;;31.67;10.93;;;;;;;;;;5011642;28;20065;-82
2021/04/25 05:41:55;;;;;;;28.70;11.15;;;;;;;;;;5030035;28;20061;-81
2021/04/25 05:44:22;;;;;;;29.75;9.60;;;5.60;99.90;;;;;;5030025;28;20072;-80
2021/04/25 05:46:49;;;;;;;29.55;9.95;;;5.60;99.90;;;;;;5033143;28;20053;-79
2021/04/25 05:49:17;;;;;;;19.60;7.57;;;4.90;99.90;;;;;;5028964;28;20057;-79
2021/04/25 05:51:44;;;;;;;24.90;9.63;;;7.10;99.90;;;;;;5024402;28;20056;-81
2021/04/25 05:54:11;;;;;;;20.65;8.63;;;6.80;99.90;;;;;;5028728;28;20076;-78
2021/04/25 05:56:38;;;;;;;23.73;8.02;;;5.80;99.90;;;;;;5029451;28;20050;-79
2021/04/25 05:59:05;;;;;;;21.63;9.45;;;5.80;99.90;;;;;;5004424;28;20411;-80
2021/04/25 06:01:32;;;;;;;22.67;9.77;;;5.80;99.90;;;;;;5029296;28;20053;-79
2021/04/25 06:04:00;;;;;;;27.33;11.00;;;5.60;99.90;;;;;;5028708;28;20045;-79
2021/04/25 06:06:27;;;;;;;22.55;8.82;;;5.90;99.90;;;;;;5012257;28;20057;-80
2021/04/25 06:08:56;;;;;;;19.38;8.25;;;7.10;99.90;;;;;;4995452;28;20054;-80
2021/04/25 06:11:23;;;;;;;25.05;9.50;;;;;;;;;;5029505;28;20061;-79
2021/04/25 06:13:51;;;;;;;19.40;10.48;;;;;;;;;;5012575;28;20048;-80
2021/04/25 06:16:20;;;;;;;21.63;7.78;;;;;;;;;;5011689;28;20056;-80
2021/04/25 06:18:47;;;;;;;20.88;8.77;;;6.20;99.90;;;;;;5031469;28;20057;-79
2021/04/25 06:21:15;;;;;;;18.30;8.85;;;7.90;99.90;;;;;;5040986;28;20057;-79
2021/04/25 06:23:43;;;;;;;24.00;9.25;;;;;;;;;;5035558;28;20507;-78
2021/04/25 06:26:10;;;;;;;22.80;9.02;;;6.40;99.90;;;;;;5014398;28;20405;-79
2021/04/25 06:28:37;;;;;;;18.90;7.38;;;7.00;99.90;;;;;;5030727;28;20065;-78
2021/04/25 06:31:07;;;;;;;17.88;8.20;;;8.70;99.90;;;;;;5028109;28;20053;-80
2021/04/25 06:33:34;;;;;;;20.85;7.78;;;6.50;99.90;;;;;;5029829;28;20056;-80
2021/04/25 06:36:03;;;;;;;25.25;8.63;;;6.70;99.90;;;;;;5028477;28;20314;-85
2021/04/25 06:38:30;;;;;;;17.98;9.20;;;6.80;99.90;;;;;;5029119;28;20507;-79
2021/04/25 06:40:57;;;;;;;21.85;8.60;;;6.90;99.90;;;;;;5031194;28;20057;-80
2021/04/25 06:43:25;;;;;;;22.10;7.55;;;7.00;99.90;;;;;;5029811;28;20051;-79
2021/04/25 06:45:53;;;;;;;19.50;8.32;;;;;;;;;;5011651;28;20072;-82
2021/04/25 06:48:20;;;;;;;20.23;9.32;;;7.20;99.90;;;;;;5029655;28;20503;-81
2021/04/25 06:50:48;;;;;;;17.23;7.45;;;7.50;99.90;;;;;;5029317;28;20108;-78
2021/04/25 06:53:16;;;;;;;16.83;5.68;;;7.40;99.90;;;;;;5030571;28;20049;-80
2021/04/25 06:55:43;;;;;;;15.75;6.97;;;6.90;99.90;;;;;;5029218;28;20065;-80
2021/04/25 06:58:10;;;;;;;18.98;7.90;;;7.40;99.90;;;;;;5028863;28;20061;-81
2021/04/25 07:00:38;;;;;;;17.52;6.25;;;7.40;99.90;;;;;;5028827;28;20405;-80
2021/04/25 07:03:06;;;;;;;18.60;6.63;;;7.50;99.90;;;;;;4995835;28;20599;-82
2021/04/25 07:05:33;;;;;;;14.45;7.82;;;9.80;99.90;;;;;;5011915;28;20053;-80
2021/04/25 07:08:01;;;;;;;16.70;6.95;;;7.60;99.90;;;;;;5022147;28;20056;-81
2021/04/25 07:10:28;;;;;;;17.67;6.93;;;7.90;99.90;;;;;;5008458;28;20068;-82
2021/04/25 07:12:55;;;;;;;23.70;6.72;;;9.30;99.90;;;;;;5029319;28;20523;-82
2021/04/25 07:15:23;;;;;;;19.60;8.43;;;7.70;99.90;;;;;;5008379;28;20053;-81
2021/04/25 07:17:51;;;;;;;15.30;6.53;;;9.70;99.90;;;;;;5025315;28;20057;-81
2021/04/25 07:20:19;;;;;;;24.17;7.32;;;7.90;99.90;;;;;;5008234;28;20063;-81
2021/04/25 07:22:46;;;;;;;23.42;7.80;;;8.10;99.90;;;;;;5014014;28;20608;-81
2021/04/25 07:25:15;;;;;;;19.30;7.38;;;8.10;99.90;;;;;;5027218;28;20053;-80
2021/04/25 07:27:42;;;;;;;18.85;6.78;;;8.10;99.90;;;;;;5027902;28;20373;-81
2021/04/25 07:30:10;;;;;;;15.30;6.63;;;8.00;99.90;;;;;;5027615;28;20057;-80
2021/04/25 07:32:38;;;;;;;17.60;7.18;;;8.20;99.90;;;;;;5027994;28;20065;-80
2021/04/25 07:35:08;;;;;;;24.75;5.88;;;8.30;99.90;;;;;;5027535;28;20064;-82
2021/04/25 07:37:38;;;;;;;13.30;6.18;;;8.30;99.90;;;;;;5026774;28;20408;-81
2021/04/25 07:40:07;;;;;;;12.05;7.50;;;8.30;99.90;;;;;;5027647;28;20064;-83
2021/04/25 07:42:36;;;;;;;16.00;6.63;;;8.40;99.90;;;;;;5027752;28;20064;-80
2021/04/25 07:45:09;;;;;;;17.80;6.53;;;8.50;99.90;;;;;;5026834;28;20438;-81
2021/04/25 07:47:36;;;;;;;20.23;6.57;;;8.50;99.90;;;;;;5027309;28;20083;-82
2021/04/25 07:50:04;;;;;;;12.65;6.47;;;8.60;99.90;;;;;;5027212;28;20045;-80
2021/04/25 07:52:32;;;;;;;21.98;7.03;;;8.60;99.90;;;;;;5029704;28;20045;-80
2021/04/25 07:54:59;;;;;;;16.17;8.00;;;;;;;;;;5027381;28;20057;-81
2021/04/25 07:57:28;;;;;;;16.45;5.88;;;8.70;99.90;;;;;;5024544;28;20053;-88
2021/04/25 07:59:55;;;;;;;14.15;6.53;;;8.70;99.90;;;;;;5022753;28;20068;-81
2021/04/25 08:02:30;;;;;;;11.98;6.18;;;9.80;99.90;;;;;;5024037;28;20245;-81
2021/04/25 08:04:58;;;;;;;23.15;6.43;;;8.90;99.90;;;;;;5005720;28;20045;-81
2021/04/25 08:07:25;;;;;;;14.32;5.68;;;8.80;99.90;;;;;;5009689;28;20056;-80
2021/04/25 08:09:53;;;;;;;9.70;4.93;;;8.80;99.90;;;;;;5008905;28;20091;-80
2021/04/25 08:12:20;;;;;;;19.42;5.80;;;8.70;99.90;;;;;;5026145;28;20049;-82
2021/04/25 08:14:48;;;;;;;11.65;5.80;;;9.10;99.90;;;;;;5027047;28;20061;-81
2021/04/25 08:17:15;;;;;;;10.20;4.50;;;9.20;99.90;;;;;;5027529;28;20052;-80
2021/04/25 08:19:42;;;;;;;15.00;7.15;;;9.20;99.90;;;;;;5006120;28;20049;-82
2021/04/25 08:22:10;;;;;;;14.80;5.53;;;10.00;99.90;;;;;;5025194;28;20072;-81
2021/04/25 08:24:37;;;;;;;11.07;5.03;;;9.40;99.90;;;;;;5026436;28;20057;-80
2021/04/25 08:27:04;;;;;;;13.23;6.10;;;9.50;99.90;;;;;;5008878;28;20049;-81
2021/04/25 08:29:32;;;;;;;21.08;5.85;;;9.50;99.90;;;;;;4992576;28;20042;-80
2021/04/25 08:32:00;;;;;;;13.20;5.53;;;9.60;99.90;;;;;;5022605;28;20076;-91
2021/04/25 08:34:34;;;;;;;15.13;5.93;;;9.40;99.90;;;;;;4992470;28;20048;-81
2021/04/25 08:37:02;;;;;;;7.43;4.47;;;9.70;99.90;;;;;;5026773;28;20060;-80
2021/04/25 08:39:29;;;;;;;8.15;3.80;;;9.40;99.90;;;;;;5009920;28;20065;-81
2021/04/25 08:41:56;;;;;;;13.20;3.47;;;10.40;99.90;;;;;;5008793;28;20057;-81
2021/04/25 08:44:25;;;;;;;10.90;4.68;;;10.00;99.90;;;;;;5026214;28;20060;-80
2021/04/25 08:46:54;;;;;;;12.65;4.20;;;9.90;99.90;;;;;;5027341;28;20045;-80
2021/04/25 08:49:25;;;;;;;7.93;4.00;;;10.40;99.90;;;;;;5006682;28;20401;-80
2021/04/25 08:51:53;;;;;;;5.60;2.85;;;10.30;99.90;;;;;;5005717;28;20390;-81
2021/04/25 08:54:30;;;;;;;5.15;2.83;;;10.10;99.90;;;;;;5023714;28;20056;-81
2021/04/25 08:56:58;;;;;;;7.93;2.90;;;10.40;99.90;;;;;;5026144;28;20060;-81
2021/04/25 08:59:25;;;;;;;15.75;5.10;;;11.00;99.90;;;;;;5004179;28;20073;-79
2021/04/25 09:01:52;;;;;;;8.88;3.20;;;10.70;99.90;;;;;;5028410;28;20066;-80
2021/04/25 09:04:19;;;;;;;10.88;3.22;;;10.00;99.90;;;;;;5029786;28;20057;-80
2021/04/25 09:07:05;;;;;;;10.20;3.42;;;10.10;99.90;;;;;;5011454;28;20057;-79
2021/04/25 09:09:44;;;;;;;6.88;2.78;;;10.10;99.90;;;;;;5031171;28;20061;-80
2021/04/25 09:12:29;;;;;;;7.60;3.10;;;10.20;99.90;;;;;;5046376;28;20079;-80
2021/04/25 09:14:56;;;;;;;9.05;3.55;;;10.30;99.90;;;;;;5026669;28;20072;-80
2021/04/25 09:17:24;;;;;;;11.00;3.15;;;10.40;99.90;;;;;;5027380;28;20042;-80
2021/04/25 09:19:59;;;;;;;6.43;3.63;;;10.50;99.90;;;;;;5047498;28;20053;-81
2021/04/25 09:22:52;;;;;;;5.00;3.28;;;10.70;99.90;;;;;;5039169;28;20716;-80
2021/04/25 09:25:19;;;;;;;17.33;4.05;;;10.80;99.90;;;;;;5026201;28;20499;-80
2021/04/25 09:27:48;;;;;;;8.13;3.30;;;11.00;99.90;;;;;;5026442;28;20044;-80
2021/04/25 09:30:24;;;;;;;11.07;3.42;;;10.70;99.90;;;;;;5010720;28;20404;-80
2021/04/25 09:33:02;;;;;;;14.82;4.13;;;10.90;99.90;;;;;;5024868;28;20054;-83
2021/04/25 09:35:29;;;;;;;9.38;3.30;;;10.80;99.90;;;;;;5022908;28;20049;-80
2021/04/25 09:37:57;;;;;;;7.40;3.42;;;10.90;99.90;;;;;;5012931;28;20049;-82
2021/04/25 09:40:26;;;;;;;8.98;3.40;;;10.70;99.90;;;;;;5011643;28;20507;-80
2021/04/25 09:43:08;;;;;;;13.95;4.30;;;10.80;99.90;;;;;;5025316;28;20049;-82
2021/04/25 09:45:43;;;;;;;17.77;3.28;;;10.70;99.90;;;;;;4998845;28;20053;-81
2021/04/25 09:48:19;;;;;;;9.85;4.25;;;10.90;99.90;;;;;;5006997;28;20415;-82
2021/04/25 09:51:04;;;;;;;10.70;3.88;;;10.80;99.90;;;;;;5010207;28;20062;-82
2021/04/25 09:53:34;;;;;;;8.30;3.60;;;10.90;99.90;;;;;;5022714;28;20504;-83
2021/04/25 09:56:03;;;;;;;8.68;3.72;;;10.90;99.90;;;;;;5011161;28;20045;-80
2021/04/25 09:58:30;;;;;;;8.73;3.15;;;10.80;99.90;;;;;;5028532;28;20054;-80
2021/04/25 10:00:58;;;;;;;11.70;4.25;;;10.80;99.90;;;;;;5024026;28;20085;-80
2021/04/25 10:03:35;;;;;;;8.93;2.85;;;11.10;99.90;;;;;;5025952;28;20064;-80
2021/04/25 10:06:06;;;;;;;9.27;4.22;;;10.40;99.90;;;;;;5025272;28;20578;-81
2021/04/25 10:08:38;;;;;;;5.18;2.40;;;10.70;99.90;;;;;;5031609;28;20090;-80
2021/04/25 10:11:25;;;;;;;9.73;3.03;;;10.80;99.90;;;;;;5026152;28;20049;-80
2021/04/25 10:13:52;;;;;;;8.30;3.95;;;10.40;99.90;;;;;;5023471;28;20394;-80
2021/04/25 10:16:21;;;;;;;11.02;3.42;;;10.90;99.90;;;;;;5004046;28;20056;-80
2021/04/25 10:18:50;;;;;;;5.72;3.03;;;11.00;99.90;;;;;;5024152;28;20057;-81
2021/04/25 10:21:17;;;;;;;4.95;2.50;;;11.10;99.90;;;;;;5021836;28;20527;-81
2021/04/25 10:23:45;;;;;;;8.80;2.92;;;11.00;99.50;;;;;;5025902;28;20046;-82
2021/04/25 10:26:14;;;;;;;8.80;3.55;;;10.90;99.80;;;;;;5029019;28;20527;-86
2021/04/25 10:28:56;;;;;;;10.10;4.25;;;10.70;99.90;;;;;;5013520;28;20053;-80
2021/04/25 10:31:30;;;;;;;11.40;4.10;;;11.00;99.90;;;;;;5021378;28;20053;-82
2021/04/25 10:34:00;;;;;;;6.38;3.05;;;11.90;99.90;;;;;;5015789;28;20046;-84
2021/04/25 10:36:51;;;;;;;4.33;2.90;;;11.20;99.90;;;;;;5021804;28;20061;-85
2021/04/25 10:39:52;;;;;;;7.85;2.75;;;11.40;99.70;;;;;;5024029;28;20310;-82
2021/04/25 10:47:35;;;;;;;8.35;2.53;;;11.50;99.00;;;;;;5023351;28;20046;-81
2021/04/25 10:50:09;;;;;;;11.85;3.75;;;11.60;99.90;;;;;;5008261;28;20068;-80
2021/04/25 10:52:37;;;;;;;8.25;2.80;;;11.50;97.60;;;;;;5022737;28;20066;-81
2021/04/25 10:55:20;;;;;;;7.70;2.58;;;12.00;97.30;;;;;;5005452;28;20057;-80
2021/04/25 10:57:53;;;;;;;7.05;2.30;;;11.50;97.40;;;;;;5022560;28;20060;-81
2021/04/25 11:00:39;;;;;;;5.00;2.65;;;11.50;97.10;;;;;;5022933;28;20058;-81
2021/04/25 11:03:07;;;;;;;6.90;3.15;;;12.00;96.30;;;;;;5008053;28;20072;-81
2021/04/25 11:05:43;;;;;;;8.25;3.03;;;12.10;96.20;;;;;;5021274;28;20052;-82
2021/04/25 11:08:13;;;;;;;9.95;4.50;;;12.30;95.80;;;;;;5022814;28;20121;-81
2021/04/25 11:10:55;;;;;;;5.70;3.08;;;12.50;95.80;;;;;;5022618;28;20515;-83
2021/04/25 11:13:46;;;;;;;14.18;3.33;;;12.30;95.20;;;;;;5028672;28;20050;-84
2021/04/25 11:16:18;;;;;;;12.38;3.40;;;12.30;95.10;;;;;;5022004;28;20056;-81
2021/04/25 11:18:58;;;;;;;11.52;3.55;;;12.50;95.20;;;;;;5021769;28;20069;-81
2021/04/25 11:21:26;;;;;;;11.95;4.55;;;12.40;95.20;;;;;;5019529;28;20061;-85
2021/04/25 11:23:54;;;;;;;9.95;4.68;;;12.50;95.20;;;;;;5041742;28;20056;-85
2021/04/25 11:26:40;;;;;;;5.85;3.13;;;12.60;94.40;;;;;;5042541;28;20052;-81
2021/04/25 11:29:14;;;;;;;10.45;2.75;;;12.50;94.00;;;;;;5007015;28;20068;-83
2021/04/25 11:31:45;;;;;;;13.70;4.78;;;12.50;93.60;;;;;;5009827;28;20042;-85
2021/04/25 11:34:34;;;;;;;14.52;4.10;;;13.20;94.10;;;;;;5024982;28;20068;-86
2021/04/25 11:37:05;;;;;;;10.80;2.25;;;12.60;93.30;;;;;;5006335;28;20527;-81
2021/04/25 11:39:45;;;;;;;8.48;3.00;;;12.70;93.20;;;;;;5021656;28;20070;-81
2021/04/25 11:42:23;;;;;;;6.43;2.25;;;12.80;92.90;;;;;;5026988;28;20392;-81
2021/04/25 11:44:50;;;;;;;10.65;2.58;;;12.90;92.90;;;;;;5022178;28;20072;-82
2021/04/25 11:47:19;;;;;;;9.85;3.30;;;13.00;92.20;;;;;;5026372;28;20053;-81
2021/04/25 11:49:54;;;;;;;7.20;2.28;;;13.20;92.60;;;;;;5024400;28;20068;-81
2021/04/25 11:52:34;;;;;;;8.52;2.72;;;13.20;91.50;;;;;;5007020;28;20646;-80
2021/04/25 11:55:09;;;;;;;9.10;2.65;;;13.30;91.60;;;;;;5021447;28;20057;-81
2021/04/25 11:57:39;;;;;;;11.30;3.50;;;13.30;91.10;;;;;;5025932;28;20054;-81
2021/04/25 12:00:21;;;;;;;4.88;2.80;;;13.40;91.30;;;;;;5025361;28;20528;-81
2021/04/25 12:03:00;;;;;;;5.70;2.63;;;13.40;90.60;;;;;;5026684;28;20054;-81
2021/04/25 12:05:30;;;;;;;8.98;2.85;;;13.40;90.40;;;;;;5008435;28;20060;-81
2021/04/25 12:07:58;;;;;;;8.30;2.28;;;13.40;90.80;;;;;;5007792;28;20053;-86
2021/04/25 12:10:32;;;;;;;6.80;2.72;;;13.10;90.10;;;;;;5023624;28;20061;-83
2021/04/25 12:13:17;;;;;;;9.95;3.25;;;13.30;90.40;;;;;;5026408;28;20052;-83
2021/04/25 12:16:05;;;;;;;9.48;3.13;;;13.30;90.10;;;;;;5024979;28;20050;-86
2021/04/25 12:18:41;;;;;;;6.80;3.00;;;13.40;89.80;;;;;;5020187;28;20041;-81
2021/04/25 12:21:15;;;;;;;10.43;2.83;;;13.60;90.40;;;;;;5026892;28;20646;-81
2021/04/25 12:23:49;;;;;;;9.70;3.30;;;13.70;90.10;;;;;;5020818;28;20064;-81
2021/04/25 12:26:19;;;;;;;7.95;2.90;;;13.70;88.90;;;;;;5024057;28;20511;-82
2021/04/25 12:28:50;;;;;;;6.75;2.97;;;13.80;89.20;;;;;;5027211;28;20044;-81
2021/04/25 12:31:27;;;;;;;7.18;3.10;;;13.80;88.40;;;;;;5024586;28;20546;-81
2021/04/25 12:33:56;;;;;;;12.40;3.75;;;13.80;88.00;;;;;;5008662;28;20266;-81
2021/04/25 12:36:27;;;;;;;8.43;3.03;;;13.80;87.50;;;;;;5027588;28;20049;-82
2021/04/25 12:39:02;;;;;;;13.93;3.03;;;13.80;87.90;;;;;;5026251;28;20057;-81
2021/04/25 12:41:40;;;;;;;6.05;3.50;;;13.90;87.30;;;;;;5026418;28;20615;-83
2021/04/25 12:44:11;;;;;;;10.63;2.73;;;13.90;86.10;;;;;;5028415;28;20057;-81
2021/04/25 12:46:39;;;;;;;10.25;3.10;;;13.90;86.50;;;;;;5031393;28;20061;-82
2021/04/25 12:49:09;;;;;;;6.90;2.90;;;14.30;94.70;;;;;;5032662;28;20060;-81
2021/04/25 12:51:42;;;;;;;12.60;2.63;;;14.10;85.60;;;;;;5033863;28;20050;-85
2021/04/25 12:54:20;;;;;;;5.88;2.55;;;14.30;84.60;;;;;;5022462;28;20057;-81
2021/04/25 12:56:51;;;;;;;6.20;2.88;;;14.50;93.70;;;;;;5028844;28;20057;-81
2021/04/25 12:59:30;;;;;;;6.88;3.75;;;14.30;83.20;;;;;;5006722;28;20049;-81
2021/04/25 13:02:00;;;;;;;13.93;3.30;;;14.50;93.60;;;;;;5031275;28;20045;-81
2021/04/25 13:04:37;;;;;;;10.32;3.00;;;14.50;83.40;;;;;;5016870;28;20211;-81
2021/04/25 13:07:28;;;;;;;9.07;2.90;;;14.60;82.20;;;;;;5031784;28;20052;-82
2021/04/25 13:09:58;;;;;;;12.47;2.40;;;14.70;82.60;;;;;;5022360;28;20061;-82
2021/04/25 13:12:40;;;;;;;4.53;2.17;;;14.70;81.80;;;;;;5031209;28;20072;-81
2021/04/25 13:15:15;;;;;;;8.32;2.80;;;14.60;81.90;;;;;;5024641;28;20057;-82
2021/04/25 13:18:15;;;;;;;6.40;4.07;;;14.70;93.10;;;;;;4995487;28;20052;-83
2021/04/25 13:20:44;;;;;;;10.13;3.17;;;14.50;81.40;;;;;;4991850;28;20042;-82
2021/04/25 13:23:15;;;;;;;10.20;3.17;;;14.60;82.40;;;;;;5025257;28;20046;-83